createdAt,value
2023-02-16T00:01:51.405Z,99.90
2023-02-16T00:04:27.391Z,99.90
2023-02-16T00:07:01.286Z,99.90
2023-02-16T00:09:33.206Z,99.90
2023-02-16T00:12:34.850Z,99.90
2023-02-16T00:15:26.616Z,99.90
2023-02-16T00:18:55.640Z,99.90
2023-02-16T00:21:27.661Z,99.90
2023-02-16T00:23:59.672Z,99.90
2023-02-16T00:26:33.946Z,99.90
2023-02-16T00:29:06.317Z,99.90
2023-02-16T00:31:50.470Z,99.90
2023-02-16T00:34:36.543Z,99.90
2023-02-16T00:37:13.565Z,99.90
2023-02-16T00:39:46.048Z,99.90
2023-02-16T00:42:29.432Z,99.90
2023-02-16T00:45:03.909Z,99.90
2023-02-16T00:47:39.843Z,99.90
2023-02-16T00:50:32.463Z,99.90
2023-02-16T00:53:05.150Z,99.90
2023-02-16T00:55:38.346Z,99.90
2023-02-16T00:58:18.942Z,99.90
2023-02-16T01:01:00.933Z,99.90
2023-02-16T01:03:39.090Z,99.90
2023-02-16T01:06:30.645Z,99.90
2023-02-16T01:09:40.822Z,99.90
2023-02-16T01:12:32.526Z,99.90
2023-02-16T01:15:30.683Z,99.90
2023-02-16T01:18:02.672Z,99.90
2023-02-16T01:20:36.542Z,99.90
2023-02-16T01:23:08.575Z,99.90
2023-02-16T01:25:41.543Z,99.90
2023-02-16T01:28:23.575Z,99.90
2023-02-16T01:30:56.866Z,99.90
2023-02-16T01:33:28.880Z,99.90
2023-02-16T01:36:01.033Z,99.90
2023-02-16T01:38:34.725Z,99.90
2023-02-16T01:41:25.093Z,99.90
2023-02-16T01:44:18.317Z,99.90
2023-02-16T01:46:58.958Z,99.90
2023-02-16T01:49:38.372Z,99.90
2023-02-16T01:52:33.645Z,99.90
2023-02-16T01:55:38.981Z,99.90
2023-02-16T01:58:27.470Z,99.90
2023-02-16T02:01:31.894Z,99.90
2023-02-16T02:04:39.169Z,99.90
2023-02-16T02:07:52.106Z,99.90
2023-02-16T02:10:58.979Z,99.90
2023-02-16T02:13:55.730Z,99.90
2023-02-16T02:16:33.682Z,99.90
2023-02-16T02:19:06.042Z,99.90
2023-02-16T02:22:35.768Z,99.90
2023-02-16T02:25:58.229Z,99.90
2023-02-16T02:29:25.251Z,99.90
2023-02-16T02:32:49.906Z,99.90
2023-02-16T02:35:52.964Z,99.90
2023-02-16T02:38:51.192Z,99.90
2023-02-16T02:42:06.097Z,99.90
2023-02-16T02:45:02.622Z,99.90
2023-02-16T02:47:48.376Z,99.90
2023-02-16T02:50:37.452Z,99.90
2023-02-16T02:53:19.232Z,99.90
2023-02-16T02:56:10.080Z,99.90
2023-02-16T02:59:27.091Z,99.90
2023-02-16T03:02:21.282Z,99.90
2023-02-16T03:04:57.513Z,99.90
2023-02-16T03:07:48.293Z,99.90
2023-02-16T03:10:47.538Z,99.90
2023-02-16T03:13:53.075Z,99.90
2023-02-16T03:16:38.495Z,99.90
2023-02-16T03:19:36.943Z,99.90
2023-02-16T03:22:47.959Z,99.90
2023-02-16T03:25:59.248Z,99.90
2023-02-16T03:29:10.528Z,99.90
2023-02-16T03:31:52.743Z,99.90
2023-02-16T03:34:26.491Z,99.90
2023-02-16T03:37:00.805Z,99.90
2023-02-16T03:39:53.462Z,99.90
2023-02-16T03:42:49.979Z,99.90
2023-02-16T03:45:23.142Z,99.90
2023-02-16T03:47:57.516Z,99.90
2023-02-16T03:50:29.994Z,99.90
2023-02-16T03:53:08.310Z,99.90
2023-02-16T03:55:43.864Z,99.90
2023-02-16T03:58:20.630Z,99.90
2023-02-16T04:00:54.645Z,99.90
2023-02-16T04:03:27.396Z,99.90
2023-02-16T04:05:59.572Z,99.90
2023-02-16T04:08:32.044Z,99.90
2023-02-16T04:11:55.495Z,99.90
2023-02-16T04:14:47.215Z,99.90
2023-02-16T04:17:19.192Z,99.90
2023-02-16T04:19:51.181Z,99.90
2023-02-16T04:22:23.113Z,99.90
2023-02-16T04:24:55.054Z,99.90
2023-02-16T04:27:27.117Z,99.90
2023-02-16T04:29:59.121Z,99.90
2023-02-16T04:32:31.226Z,99.90
2023-02-16T04:35:03.538Z,99.90
2023-02-16T04:37:36.296Z,99.90
2023-02-16T04:40:11.013Z,99.90
2023-02-16T04:42:46.738Z,99.90
2023-02-16T04:45:18.861Z,99.90
2023-02-16T04:47:51.068Z,99.90
2023-02-16T04:50:23.130Z,99.90
2023-02-16T04:52:55.210Z,99.90
2023-02-16T04:55:27.385Z,99.90
2023-02-16T04:58:00.472Z,99.90
2023-02-16T05:00:33.247Z,99.90
2023-02-16T05:03:11.667Z,99.90
2023-02-16T05:05:43.736Z,99.90
2023-02-16T05:08:16.037Z,99.90
2023-02-16T05:11:08.040Z,99.90
2023-02-16T05:14:18.768Z,99.90
2023-02-16T05:17:33.759Z,99.90
2023-02-16T05:20:06.686Z,99.90
2023-02-16T05:22:39.402Z,99.90
2023-02-16T05:25:11.528Z,99.90
2023-02-16T05:27:43.836Z,99.90
2023-02-16T05:30:16.061Z,99.90
2023-02-16T05:32:48.023Z,99.90
2023-02-16T05:35:20.018Z,99.90
2023-02-16T05:37:51.950Z,99.90
2023-02-16T05:40:24.073Z,99.90
2023-02-16T05:42:56.198Z,99.90
2023-02-16T05:45:28.914Z,99.90
2023-02-16T05:48:00.845Z,99.90
2023-02-16T05:50:32.803Z,99.90
2023-02-16T05:53:04.717Z,99.90
2023-02-16T05:55:36.714Z,99.90
2023-02-16T05:58:08.840Z,99.90
2023-02-16T06:00:40.896Z,99.90
2023-02-16T06:03:12.900Z,99.90
2023-02-16T06:05:45.042Z,99.90
2023-02-16T06:08:17.030Z,99.90
2023-02-16T06:10:50.237Z,99.90
2023-02-16T06:13:23.807Z,99.90
2023-02-16T06:15:57.047Z,99.90
2023-02-16T06:18:29.121Z,99.90
2023-02-16T06:21:01.309Z,99.90
2023-02-16T06:23:33.569Z,99.90
2023-02-16T06:26:05.633Z,99.90
2023-02-16T06:28:37.625Z,99.90
2023-02-16T06:31:10.081Z,99.90
2023-02-16T06:33:43.450Z,99.90
2023-02-16T06:36:15.871Z,99.90
2023-02-16T06:38:48.492Z,99.90
2023-02-16T06:41:35.497Z,99.90
2023-02-16T06:44:15.495Z,99.90
2023-02-16T06:46:48.530Z,99.90
2023-02-16T06:49:21.258Z,99.90
2023-02-16T06:51:53.402Z,99.90
2023-02-16T06:54:25.447Z,99.90
2023-02-16T06:56:57.542Z,99.90
2023-02-16T06:59:29.564Z,99.90
2023-02-16T07:02:01.541Z,99.90
2023-02-16T07:04:33.720Z,99.90
2023-02-16T07:07:05.902Z,99.90
2023-02-16T07:09:38.150Z,99.90
2023-02-16T07:12:10.134Z,99.90
2023-02-16T07:14:44.102Z,99.90
2023-02-16T07:17:25.374Z,99.90
2023-02-16T07:19:59.908Z,99.90
2023-02-16T07:22:32.711Z,99.90
2023-02-16T07:25:05.030Z,99.90
2023-02-16T07:27:37.652Z,99.90
2023-02-16T07:30:11.075Z,99.90
2023-02-16T07:32:44.408Z,99.90
2023-02-16T07:35:16.606Z,99.90
2023-02-16T07:37:48.809Z,99.90
2023-02-16T07:40:21.011Z,99.90
2023-02-16T07:42:53.156Z,99.90
2023-02-16T07:45:26.544Z,99.90
2023-02-16T07:47:59.726Z,99.90
2023-02-16T07:50:32.247Z,99.90
2023-02-16T07:53:05.135Z,99.90
2023-02-16T07:55:45.094Z,99.90
2023-02-16T07:58:27.531Z,99.90
2023-02-16T08:01:15.951Z,99.90
2023-02-16T08:03:48.706Z,99.90
2023-02-16T08:06:21.397Z,99.90
2023-02-16T08:08:53.639Z,99.90
2023-02-16T08:11:27.823Z,99.90
2023-02-16T08:14:00.439Z,99.90
2023-02-16T08:16:32.500Z,99.90
2023-02-16T08:19:04.749Z,99.90
2023-02-16T08:21:37.087Z,99.90
2023-02-16T08:24:13.319Z,99.90
2023-02-16T08:26:57.877Z,99.90
2023-02-16T08:29:32.238Z,99.90
2023-02-16T08:32:07.712Z,99.90
2023-02-16T08:34:43.487Z,99.90
2023-02-16T08:37:15.724Z,99.90
2023-02-16T08:39:49.184Z,99.90
2023-02-16T08:42:21.516Z,99.90
2023-02-16T08:44:54.648Z,99.90
2023-02-16T08:47:27.064Z,99.90
2023-02-16T08:50:00.754Z,99.90
2023-02-16T08:52:32.848Z,99.90
2023-02-16T08:55:05.351Z,99.90
2023-02-16T08:57:37.917Z,99.90
2023-02-16T09:00:28.863Z,99.90
2023-02-16T09:03:09.623Z,99.90
2023-02-16T09:05:42.385Z,99.90
2023-02-16T09:08:21.959Z,99.90
2023-02-16T09:10:54.714Z,99.90
2023-02-16T09:13:27.160Z,99.90
2023-02-16T09:16:05.154Z,99.90
2023-02-16T09:18:40.952Z,99.90
2023-02-16T09:21:25.585Z,99.90
2023-02-16T09:23:59.498Z,99.90
2023-02-16T09:26:35.611Z,99.90
2023-02-16T09:29:12.611Z,99.90
2023-02-16T09:35:56.329Z,99.90
2023-02-16T09:38:28.416Z,99.90
2023-02-16T09:41:18.227Z,99.90
2023-02-16T09:44:32.542Z,99.90
2023-02-16T09:47:34.833Z,99.90
2023-02-16T09:50:14.487Z,99.90
2023-02-16T09:53:03.658Z,99.90
2023-02-16T09:55:50.452Z,99.90
2023-02-16T09:59:04.532Z,99.90
2023-02-16T10:01:56.465Z,99.90
2023-02-16T10:04:54.153Z,99.90
2023-02-16T10:07:48.790Z,99.90
2023-02-16T10:11:04.168Z,99.90
2023-02-16T10:13:54.232Z,99.90
2023-02-16T10:16:40.011Z,99.90
2023-02-16T10:19:26.698Z,99.90
2023-02-16T10:22:17.702Z,99.90
2023-02-16T10:25:06.601Z,99.90
2023-02-16T10:27:49.142Z,99.90
2023-02-16T10:30:31.858Z,99.90
2023-02-16T10:33:39.163Z,99.90
2023-02-16T10:36:48.020Z,99.90
2023-02-16T10:39:48.511Z,99.90
2023-02-16T10:43:20.634Z,99.90
2023-02-16T10:46:22.160Z,99.90
2023-02-16T10:48:59.164Z,99.90
2023-02-16T10:51:37.994Z,99.90
2023-02-16T10:54:28.461Z,99.90
2023-02-16T10:57:08.021Z,99.90
2023-02-16T10:59:59.277Z,99.90
2023-02-16T11:02:42.816Z,99.90
2023-02-16T11:05:26.574Z,99.90
2023-02-16T11:08:12.781Z,99.90
2023-02-16T11:10:50.570Z,99.90
2023-02-16T11:13:34.450Z,99.90
2023-02-16T11:16:41.762Z,99.90
2023-02-16T11:19:24.763Z,99.90
2023-02-16T11:21:58.615Z,99.90
2023-02-16T11:24:33.752Z,99.90
2023-02-16T11:27:26.059Z,99.90
2023-02-16T11:30:33.052Z,99.90
2023-02-16T11:33:23.584Z,99.90
2023-02-16T11:35:57.505Z,99.90
2023-02-16T11:38:33.163Z,99.90
2023-02-16T11:41:07.487Z,99.90
2023-02-16T11:43:42.341Z,99.90
2023-02-16T11:46:40.917Z,99.90
2023-02-16T11:49:31.347Z,99.90
2023-02-16T11:52:23.448Z,99.90
2023-02-16T11:55:02.311Z,99.90
2023-02-16T11:57:57.094Z,99.90
2023-02-16T12:01:17.099Z,99.90
2023-02-16T12:04:45.268Z,99.90
2023-02-16T12:07:51.299Z,99.90
2023-02-16T12:11:07.836Z,99.90
2023-02-16T12:14:03.659Z,99.90
2023-02-16T12:17:24.010Z,99.90
2023-02-16T12:20:53.226Z,99.90
2023-02-16T12:24:13.906Z,99.90
2023-02-16T12:27:10.114Z,99.80
2023-02-16T12:30:00.101Z,99.70
2023-02-16T12:33:06.341Z,99.00
2023-02-16T12:36:14.200Z,97.30
2023-02-16T12:39:16.851Z,98.50
2023-02-16T12:42:22.898Z,99.50
2023-02-16T12:45:25.012Z,97.10
2023-02-16T12:48:22.375Z,98.80
2023-02-16T12:51:20.558Z,99.50
2023-02-16T12:54:29.458Z,98.90
2023-02-16T12:57:17.244Z,99.00
2023-02-16T12:59:57.542Z,98.60
2023-02-16T13:02:44.903Z,99.20
2023-02-16T13:05:34.946Z,99.50
2023-02-16T13:08:30.222Z,99.30
2023-02-16T13:11:32.682Z,99.10
2023-02-16T13:14:20.214Z,99.50
2023-02-16T13:17:01.991Z,98.80
2023-02-16T13:19:43.874Z,98.70
2023-02-16T13:22:44.367Z,97.20
2023-02-16T13:25:48.323Z,96.80
2023-02-16T13:29:08.327Z,97.80
2023-02-16T13:32:17.971Z,97.70
2023-02-16T13:35:27.691Z,97.90
2023-02-16T13:38:47.082Z,99.10
2023-02-16T13:41:57.983Z,98.30
2023-02-16T13:44:47.417Z,99.10
2023-02-16T13:47:31.550Z,99.70
2023-02-16T13:50:27.052Z,99.90
2023-02-16T13:53:24.781Z,99.90
2023-02-16T13:56:32.611Z,99.90
2023-02-16T13:59:17.167Z,99.90
2023-02-16T14:02:13.653Z,99.90
2023-02-16T14:05:10.692Z,99.90
2023-02-16T14:08:14.994Z,99.90
2023-02-16T14:10:55.180Z,99.90
2023-02-16T14:13:39.276Z,99.90
2023-02-16T14:16:17.815Z,99.90
2023-02-16T14:19:21.508Z,99.90
2023-02-16T14:21:55.915Z,99.90
2023-02-16T14:24:44.810Z,99.90
2023-02-16T14:27:51.718Z,99.90
2023-02-16T14:30:52.906Z,99.90
2023-02-16T14:33:54.776Z,99.90
2023-02-16T14:36:35.263Z,99.90
2023-02-16T14:39:30.134Z,99.90
2023-02-16T14:42:21.776Z,99.90
2023-02-16T14:45:23.178Z,99.90
2023-02-16T14:48:45.836Z,99.90
2023-02-16T14:51:56.898Z,99.90
2023-02-16T14:55:17.211Z,99.90
2023-02-16T14:58:46.616Z,99.90
2023-02-16T15:01:41.167Z,99.90
2023-02-16T15:04:30.850Z,99.90
2023-02-16T15:07:05.144Z,99.90
2023-02-16T15:09:42.878Z,99.90
2023-02-16T15:12:21.913Z,99.90
2023-02-16T15:15:04.528Z,99.90
2023-02-16T15:17:44.976Z,99.90
2023-02-16T15:20:34.236Z,99.90
2023-02-16T15:23:20.849Z,99.90
2023-02-16T15:26:19.456Z,99.90
2023-02-16T15:29:01.205Z,99.90
2023-02-16T15:31:51.191Z,99.90
2023-02-16T15:34:36.192Z,99.90
2023-02-16T15:37:32.415Z,99.90
2023-02-16T15:40:25.464Z,99.90
2023-02-16T15:43:27.089Z,99.90
2023-02-16T15:46:16.354Z,99.90
2023-02-16T15:49:35.439Z,99.90
2023-02-16T15:52:20.406Z,99.90
2023-02-16T15:55:07.043Z,99.90
2023-02-16T15:57:42.004Z,99.90
2023-02-16T16:00:20.777Z,99.90
2023-02-16T16:02:55.753Z,99.90
2023-02-16T16:05:38.786Z,99.90
2023-02-16T16:08:27.025Z,99.90
2023-02-16T16:11:01.119Z,99.90
2023-02-16T16:13:34.292Z,99.90
2023-02-16T16:16:10.096Z,99.90
2023-02-16T16:18:46.586Z,99.90
2023-02-16T16:21:36.016Z,99.90
2023-02-16T16:24:35.217Z,99.90
2023-02-16T16:27:12.760Z,99.90
2023-02-16T16:29:47.857Z,99.90
2023-02-16T16:32:28.818Z,99.90
2023-02-16T16:35:52.798Z,99.90
2023-02-16T16:38:39.573Z,99.90
2023-02-16T16:41:28.192Z,99.90
2023-02-16T16:44:00.549Z,99.90
2023-02-16T16:46:42.124Z,99.90
2023-02-16T16:49:16.494Z,99.90
2023-02-16T16:51:54.687Z,99.90
2023-02-16T16:54:36.052Z,99.90
2023-02-16T16:57:17.252Z,99.90
2023-02-16T16:59:50.328Z,99.90
2023-02-16T17:02:22.626Z,99.90
2023-02-16T17:04:54.779Z,99.90
2023-02-16T17:07:27.636Z,99.90
2023-02-16T17:10:01.056Z,99.90
2023-02-16T17:12:33.859Z,99.90
2023-02-16T17:15:08.313Z,99.90
2023-02-16T17:17:56.735Z,99.90
2023-02-16T17:20:29.850Z,99.90
2023-02-16T17:23:04.577Z,99.90
2023-02-16T17:25:37.762Z,99.90
2023-02-16T17:28:12.072Z,99.90
2023-02-16T17:30:46.045Z,99.90
2023-02-16T17:33:18.587Z,99.90
2023-02-16T17:35:51.502Z,99.90
2023-02-16T17:38:25.898Z,99.90
2023-02-16T17:41:03.482Z,99.90
2023-02-16T17:43:36.413Z,99.90
2023-02-16T17:46:09.298Z,99.90
2023-02-16T17:48:42.701Z,99.90
2023-02-16T17:51:17.506Z,99.90
2023-02-16T17:53:51.924Z,99.90
2023-02-16T17:56:48.364Z,99.90
2023-02-16T17:59:20.495Z,99.90
2023-02-16T18:01:52.809Z,99.90
2023-02-16T18:04:25.862Z,99.90
2023-02-16T18:06:58.460Z,99.90
2023-02-16T18:09:31.479Z,99.90
2023-02-16T18:12:04.927Z,99.90
2023-02-16T18:14:38.042Z,99.90
2023-02-16T18:17:13.090Z,99.90
2023-02-16T18:19:45.311Z,99.90
2023-02-16T18:22:17.848Z,99.90
2023-02-16T18:24:51.307Z,99.90
2023-02-16T18:27:28.019Z,99.90
2023-02-16T18:30:01.766Z,99.90
2023-02-16T18:32:34.584Z,99.90
2023-02-16T18:35:07.775Z,99.90
2023-02-16T18:37:40.957Z,99.90
2023-02-16T18:40:17.812Z,99.90
2023-02-16T18:42:51.516Z,99.90
2023-02-16T18:45:24.515Z,99.90
2023-02-16T18:47:56.829Z,99.90
2023-02-16T18:50:29.351Z,99.90
2023-02-16T18:53:02.556Z,99.90
2023-02-16T18:55:35.797Z,99.90
2023-02-16T18:58:08.701Z,99.90
2023-02-16T19:00:44.320Z,99.90
2023-02-16T19:03:17.229Z,99.90
2023-02-16T19:06:21.779Z,99.90
2023-02-16T19:08:55.407Z,99.90
2023-02-16T19:11:31.890Z,99.90
2023-02-16T19:14:05.165Z,99.90
2023-02-16T19:16:44.286Z,99.90
2023-02-16T19:19:17.276Z,99.90
2023-02-16T19:21:49.955Z,99.90
2023-02-16T19:24:22.814Z,99.90
2023-02-16T19:26:56.060Z,99.90
2023-02-16T19:29:28.871Z,99.90
2023-02-16T19:32:01.272Z,99.90
2023-02-16T19:34:34.915Z,99.90
2023-02-16T19:37:07.965Z,99.90
2023-02-16T19:39:41.190Z,99.90
2023-02-16T19:42:15.229Z,99.90
2023-02-16T19:44:48.252Z,99.90
2023-02-16T19:47:21.956Z,99.90
2023-02-16T19:49:58.040Z,99.90
2023-02-16T19:52:31.803Z,99.90
2023-02-16T19:55:05.114Z,99.90
2023-02-16T19:57:38.714Z,99.90
2023-02-16T20:00:15.098Z,99.90
2023-02-16T20:02:48.766Z,99.90
2023-02-16T20:05:21.695Z,99.90
2023-02-16T20:07:57.877Z,99.90
2023-02-16T20:10:34.031Z,99.90
2023-02-16T20:13:14.378Z,99.90
2023-02-16T20:15:48.183Z,99.90
2023-02-16T20:18:23.290Z,99.90
2023-02-16T20:21:04.099Z,99.90
2023-02-16T20:23:50.286Z,99.90
2023-02-16T20:26:30.068Z,99.90
2023-02-16T20:29:10.114Z,99.90
2023-02-16T20:31:49.278Z,99.90
2023-02-16T20:34:27.852Z,99.90
2023-02-16T20:37:01.192Z,99.90
2023-02-16T20:39:33.944Z,99.90
2023-02-16T20:42:07.783Z,99.90
2023-02-16T20:44:41.033Z,99.90
2023-02-16T20:47:14.141Z,99.90
2023-02-16T20:49:48.366Z,99.90
2023-02-16T20:52:21.408Z,99.90
2023-02-16T20:54:54.632Z,99.90
2023-02-16T20:57:28.281Z,99.90
2023-02-16T21:00:07.595Z,99.90
2023-02-16T21:02:49.384Z,99.90
2023-02-16T21:05:23.844Z,99.90
2023-02-16T21:07:56.586Z,99.90
2023-02-16T21:10:29.478Z,99.90
2023-02-16T21:13:02.572Z,99.90
2023-02-16T21:15:35.039Z,99.90
2023-02-16T21:18:07.605Z,99.90
2023-02-16T21:20:41.675Z,99.90
2023-02-16T21:23:14.833Z,99.90
2023-02-16T21:25:48.394Z,99.90
2023-02-16T21:28:21.454Z,99.90
2023-02-16T21:30:54.502Z,99.90
2023-02-16T21:33:26.804Z,99.90
2023-02-16T21:36:07.518Z,99.90
2023-02-16T21:38:43.525Z,99.90
2023-02-16T21:41:25.306Z,99.90
2023-02-16T21:44:02.281Z,99.90
2023-02-16T21:46:43.996Z,99.90
2023-02-16T21:49:19.730Z,99.90
2023-02-16T21:51:52.223Z,99.90
2023-02-16T21:54:44.608Z,99.90
2023-02-16T21:57:36.987Z,99.90
2023-02-16T22:00:15.637Z,99.90
2023-02-16T22:02:48.529Z,99.90
2023-02-16T22:05:20.844Z,99.90
2023-02-16T22:07:52.953Z,99.90
2023-02-16T22:10:25.885Z,99.90
2023-02-16T22:12:59.266Z,99.90
2023-02-16T22:15:31.913Z,99.90
2023-02-16T22:18:06.609Z,99.90
2023-02-16T22:20:38.727Z,99.90
2023-02-16T22:23:12.418Z,99.90
2023-02-16T22:25:44.452Z,99.90
2023-02-16T22:28:16.580Z,99.90
2023-02-16T22:30:48.944Z,99.90
2023-02-16T22:33:21.105Z,99.90
2023-02-16T22:35:53.313Z,99.90
2023-02-16T22:39:02.314Z,99.90
2023-02-16T22:41:35.368Z,99.90
2023-02-16T22:44:07.933Z,99.90
2023-02-16T22:46:41.203Z,99.90
2023-02-16T22:49:13.503Z,99.90
2023-02-16T22:51:45.635Z,99.90
2023-02-16T22:54:18.032Z,99.90
2023-02-16T22:56:51.319Z,99.90
2023-02-16T22:59:23.412Z,99.90
2023-02-16T23:01:55.543Z,99.90
2023-02-16T23:04:27.692Z,99.90
2023-02-16T23:06:59.824Z,99.90
2023-02-16T23:09:31.925Z,99.90
2023-02-16T23:12:04.411Z,99.90
2023-02-16T23:14:37.888Z,99.90
2023-02-16T23:17:10.027Z,99.90
2023-02-16T23:19:42.168Z,99.90
2023-02-16T23:22:14.275Z,99.90
2023-02-16T23:25:06.330Z,99.90
2023-02-16T23:27:58.360Z,99.90
2023-02-16T23:30:32.239Z,99.90
2023-02-16T23:33:04.273Z,99.90
2023-02-16T23:35:39.639Z,99.90
2023-02-16T23:38:14.558Z,99.90
2023-02-16T23:40:47.029Z,99.90
2023-02-16T23:43:39.316Z,99.90
2023-02-16T23:46:12.085Z,99.90
2023-02-16T23:48:44.328Z,99.90
2023-02-16T23:51:16.504Z,99.90
2023-02-16T23:53:49.102Z,99.90
2023-02-16T23:56:26.725Z,99.90
2023-02-16T23:59:01.845Z,99.90
